< < Back
Terminal Aerodrome Forecast


Current Version              Previous Versions:   1  2  3  4  5  6  7  8  9  

Terminal Aerodrome Forecast

289
FTUS42 KFFC 030520
TAFFTY
TAF
KFTY 030520Z 0306/0406 00000KT P6SM FEW080 BKN200
     FM031500 32003KT P6SM SCT045 BKN180
     FM031800 31005KT P6SM BKN050 PROB30 0319/0323 -SHRA
     FM040000 00000KT P6SM SCT060 SCT150=

Latest METAR

697
SAUS70 KWBC 030700 RRI
MTRFTY
METAR KFTY 030653Z 00000KT 10SM CLR 24/22 A2999 RMK AO2 SLP144
T02390217


USA.gov is the U.S. government's official web portal to all federal, state and local government web resources and services.